Time,TemperatureF,DewpointF,PressureIn,WindDirection,WindDirectionDegrees,WindSpeedMPH,WindSpeedGustMPH,Humidity,HourlyPrecipIn,Conditions,Clouds,dailyrainin,SoftwareType,DateUTC
2017-02-21 00:09:00,39.3,28.0,30.25,ENE,57,2.0,6.0,63,0.00,,,0.00,weatherlink.com 1.10,2017-02-21 05:09:00,
2017-02-21 00:24:00,40.9,27.0,30.26,NE,41,3.0,6.0,57,0.00,,,0.00,weatherlink.com 1.10,2017-02-21 05:24:00,
2017-02-21 00:39:00,41.5,26.0,30.26,ENE,78,4.0,9.0,54,0.00,,,0.00,weatherlink.com 1.10,2017-02-21 05:39:00,
2017-02-21 00:54:00,41.3,26.0,30.26,NE,34,2.0,4.0,56,0.00,,,0.00,weatherlink.com 1.10,2017-02-21 05:54:00,
2017-02-21 01:09:00,40.2,25.0,30.26,NNE,28,2.0,5.0,56,0.00,,,0.00,weatherlink.com 1.10,2017-02-21 06:09:00,
2017-02-21 01:24:00,39.4,25.0,30.27,East,82,1.0,6.0,57,0.00,,,0.00,weatherlink.com 1.10,2017-02-21 06:24:00,
2017-02-21 01:39:00,39.4,25.0,30.27,NNE,26,1.0,9.0,56,0.00,,,0.00,weatherlink.com 1.10,2017-02-21 06:39:00,
2017-02-21 01:55:00,39.1,25.0,30.27,East,88,0.0,8.0,57,0.00,,,0.00,weatherlink.com 1.10,2017-02-21 06:55:00,
2017-02-21 02:10:00,38.1,23.0,30.26,NE,54,0.0,6.0,54,0.00,,,0.00,weatherlink.com 1.10,2017-02-21 07:10:00,
2017-02-21 02:25:00,37.4,22.0,30.27,ENE,74,1.0,5.0,53,0.00,,,0.00,weatherlink.com 1.10,2017-02-21 07:25:00,
2017-02-21 02:40:00,37.5,22.0,30.28,NNE,29,0.0,4.0,53,0.00,,,0.00,weatherlink.com 1.10,2017-02-21 07:40:00,
2017-02-21 02:55:00,36.7,21.0,30.27,NNE,29,0.0,2.0,54,0.00,,,0.00,weatherlink.com 1.10,2017-02-21 07:55:00,
2017-02-21 03:10:00,36.6,21.0,30.26,ENE,76,1.0,3.0,53,0.00,,,0.00,weatherlink.com 1.10,2017-02-21 08:10:00,
2017-02-21 03:25:00,36.7,20.0,30.25,ENE,74,0.0,2.0,51,0.00,,,0.00,weatherlink.com 1.10,2017-02-21 08:25:00,
2017-02-21 03:40:00,36.0,20.0,30.26,ENE,74,0.0,0.0,52,0.00,,,0.00,weatherlink.com 1.10,2017-02-21 08:40:00,
2017-02-21 03:55:00,35.3,20.0,30.26,ENE,74,0.0,0.0,54,0.00,,,0.00,weatherlink.com 1.10,2017-02-21 08:55:00,
2017-02-21 04:10:00,35.0,20.0,30.26,East,91,0.0,2.0,55,0.00,,,0.00,weatherlink.com 1.10,2017-02-21 09:10:00,
2017-02-21 04:25:00,35.7,21.0,30.27,SE,136,0.0,1.0,55,0.00,,,0.00,weatherlink.com 1.10,2017-02-21 09:25:00,
2017-02-21 04:40:00,35.8,22.0,30.28,ESE,104,0.0,4.0,57,0.00,,,0.00,weatherlink.com 1.10,2017-02-21 09:40:00,
2017-02-21 04:55:00,35.9,22.0,30.27,East,96,3.0,9.0,57,0.00,,,0.00,weatherlink.com 1.10,2017-02-21 09:55:00,
2017-02-21 05:10:00,35.7,23.0,30.27,ESE,107,1.0,6.0,61,0.00,,,0.00,weatherlink.com 1.10,2017-02-21 10:10:00,
2017-02-21 05:25:00,35.7,23.0,30.28,SE,136,1.0,2.0,60,0.00,,,0.00,weatherlink.com 1.10,2017-02-21 10:25:00,
2017-02-21 05:40:00,35.7,22.0,30.27,East,100,3.0,7.0,58,0.00,,,0.00,weatherlink.com 1.10,2017-02-21 10:40:00,
2017-02-21 05:55:00,34.7,23.0,30.27,East,98,6.0,9.0,62,0.00,,,0.00,weatherlink.com 1.10,2017-02-21 10:55:00,
2017-02-21 06:10:00,34.0,22.0,30.26,SE,132,1.0,6.0,61,0.00,,,0.00,weatherlink.com 1.10,2017-02-21 11:10:00,
2017-02-21 06:25:00,33.2,21.0,30.27,SE,132,0.0,1.0,62,0.00,,,0.00,weatherlink.com 1.10,2017-02-21 11:25:00,
2017-02-21 06:40:00,33.0,20.0,30.27,SE,125,0.0,7.0,58,0.00,,,0.00,weatherlink.com 1.10,2017-02-21 11:40:00,
2017-02-21 06:55:00,33.6,19.0,30.27,ESE,104,0.0,2.0,55,0.00,,,0.00,weatherlink.com 1.10,2017-02-21 11:55:00,
2017-02-21 07:10:00,33.7,19.0,30.27,ESE,104,0.0,0.0,55,0.00,,,0.00,weatherlink.com 1.10,2017-02-21 12:10:00,
2017-02-21 07:25:00,34.4,18.0,30.27,ESE,104,1.0,1.0,52,0.00,,,0.00,weatherlink.com 1.10,2017-02-21 12:25:00,
2017-02-21 07:40:00,36.0,21.0,30.26,NE,49,1.0,2.0,55,0.00,,,0.00,weatherlink.com 1.10,2017-02-21 12:40:00,
2017-02-21 07:55:00,37.6,22.0,30.27,ESE,112,0.0,8.0,54,0.00,,,0.00,weatherlink.com 1.10,2017-02-21 12:55:00,
2017-02-21 08:10:00,38.1,23.0,30.28,SW,217,0.0,2.0,56,0.00,,,0.00,weatherlink.com 1.10,2017-02-21 13:10:00,
2017-02-21 08:25:00,38.1,22.0,30.27,SW,217,0.0,1.0,53,0.00,,,0.00,weatherlink.com 1.10,2017-02-21 13:25:00,
2017-02-21 08:40:00,38.8,24.0,30.27,East,81,2.0,7.0,55,0.00,,,0.00,weatherlink.com 1.10,2017-02-21 13:40:00,
2017-02-21 08:55:00,40.1,23.0,30.27,ESE,106,2.0,6.0,50,0.00,,,0.00,weatherlink.com 1.10,2017-02-21 13:55:00,
2017-02-21 09:10:00,42.2,22.0,30.27,SSE,158,1.0,8.0,45,0.00,,,0.00,weatherlink.com 1.10,2017-02-21 14:10:00,
2017-02-21 09:25:00,43.4,23.0,30.26,SSE,167,8.0,11.0,45,0.00,,,0.00,weatherlink.com 1.10,2017-02-21 14:25:00,
2017-02-21 09:40:00,43.3,22.0,30.26,SSW,196,4.0,8.0,43,0.00,,,0.00,weatherlink.com 1.10,2017-02-21 14:40:00,
2017-02-21 09:56:00,44.1,23.0,30.25,SE,138,3.0,10.0,44,0.00,,,0.00,weatherlink.com 1.10,2017-02-21 14:56:00,
2017-02-21 10:26:00,44.6,24.0,30.25,SSE,155,0.0,9.0,44,0.00,,,0.00,weatherlink.com 1.10,2017-02-21 15:26:00,
2017-02-21 10:41:00,44.8,25.0,30.24,South,177,2.0,10.0,46,0.00,,,0.00,weatherlink.com 1.10,2017-02-21 15:41:00,
2017-02-21 10:56:00,45.1,26.0,30.23,SE,128,1.0,11.0,47,0.00,,,0.00,weatherlink.com 1.10,2017-02-21 15:56:00,
2017-02-21 11:11:00,46.0,27.0,30.23,South,176,2.0,8.0,48,0.00,,,0.00,weatherlink.com 1.10,2017-02-21 16:11:00,
2017-02-21 11:26:00,46.7,28.0,30.23,SE,133,5.0,12.0,49,0.00,,,0.00,weatherlink.com 1.10,2017-02-21 16:26:00,